Terminal Aerodrome Forecast
Issued by NWS

Home | Current Version | Previous Version | Text Only | Print | Product List | Glossary On
Versions: 1 2 3 4 5 6 7 8 9 10 11 12 13 14 15 16 17
000
FTUS43 KMQT 251738
TAFSAW
TAF
KSAW 251738Z 2518/2618 06007KT P6SM OVC015
     FM260100 09005KT P6SM OVC015
     FM260600 12007KT 4SM -FZRA BKN006 OVC015
     FM260800 12006KT 3SM -FZRA SCT002 OVC006
     FM261300 10004KT 6SM -RA BR OVC006=

USA.gov is the U.S. government's official web portal to all federal, state and local government web resources and services.